FLIGHT INFORMATION
Swiss International Air Lines

SWR1

At Arrival Gate

KPAE
 LSZH
DATE: 2018-12-30
GATE:  -
GATE DEPARTURE: 16:40
TAKEOFF: 16:50
DATE: 2018-12-31
GATE:  -
LANDING: 02:33
GATE ARRIVAL: 02:39
FLIGHT DATA
Crew: MATS JOHANSSON
Speed: 510 kts Altitude: 43000 ft
Stage Length: 4533 nm
Route: ALPSE IWACK FOLDY YDC YNY 55N14 DUROT 6195N 6380N YFB DUTUM MUSVA CLAVY 6450N 6340N 6130N 5920N AGORI OSBOX MIMKU SOSIM GIGTO MALUD EPOXI AMPIT RISLA KEPAD TELBA VIDOK PEPUL DISIT TUBSU NANUM NEDEX KIDLI LINDY MID BOGNA BENBO HAWKE XAMAB VEULE INPAX RESMI PEKIM PILUL PIMUP PIXIS PIBAT LUSAR SAUNI LIRKO MOLUS SOSAL TELNO KORED KONOL BERSU
Block Time: 10 Flight Time: 9.7
Fuel Used: 189650 LB
TRACK DATA
50000 FT1000 KTAltitudeSpeed
AIRCRAFT INFORMATION
Aircraft Type: B748
Registration: HB-IGK
SELCAL:  MSN/LN: 0 / 1
Operator: SWISS INTERNATIONAL AIR LINES
Flights: 3 Block Time: 24.4 Flight Time: 23.5
Fuel Used: 727865 LB
  • DEPARTURE INFORMATION
    Date: 2018-12-30
    Airport: KPAE
    Gate:  -
    Gate Departure: 16:40
    Takeoff: 16:50
    ARRIVAL INFORMATION
    Date: 2018-12-31
    Airport: LSZH
    Gate:  -
    Landing: 02:33
    Gate Arrival: 02:39
  • FLIGHT DATA
    Crew: MATS JOHANSSON
    Speed: 510 kts Altitude: 43000 ft
    Stage Length: 2448 nm
    Route: ALPSE IWACK FOLDY YDC YNY 55N14 DUROT 6195N 6380N YFB DUTUM MUSVA CLAVY 6450N 6340N 6130N 5920N AGORI OSBOX MIMKU SOSIM GIGTO MALUD EPOXI AMPIT RISLA KEPAD TELBA VIDOK PEPUL DISIT TUBSU NANUM NEDEX KIDLI LINDY MID BOGNA BENBO HAWKE XAMAB VEULE INPAX RESMI PEKIM PILUL PIMUP PIXIS PIBAT LUSAR SAUNI LIRKO MOLUS SOSAL TELNO KORED KONOL BERSU
    Block Time: 10 Flight Time: 9.7
    Fuel Used: 189650 LB
  • AIRCRAFT INFORMATION
    Aircraft Type: B748
    Registration: HB-IGK
    SELCAL:  MSN/LN: 0 / 1
    Operator: Swiss International Air Lines
    Flights: 3 Block Time: 24.4 Flight Time: 23.5
    Fuel Used: 727865 LB

DATALINK LOG | Newest first | Current as of: 2020-07-13 23:53:10
LABEL ID SEQUENCE CONTENT Dn/Up
QD390702:39 29.2▼ Dn
QC334602:33▼ Dn
2U1252LSZH 301850Z 16004KT 090V170 8000 NSC 02/02 Q1034 NOSIG▲ Up
2S4045LSZH▼ Dn
2U4722LSZH 301820Z VRB02KT CAVOK 03/02 Q1035 NOSIG▲ Up
2S5322LSZH▼ Dn
5U3105TAF LSZH 301725Z 3018/3124 VRB03KT CAVOK TX05/3115Z TN01/3104Z BECMG 3018/3021 8000 BKN070 TEMPO 3101/3110 4500 RA BKN014 TEMPO 3115/3124 4500 RA BKN012▲ Up
5S0126LSZH▼ Dn
QB503316:50▼ Dn
QA404716:40 219.1▼ Dn
2U3845KPAE 301553Z 21003KT 10SM OVC060 06/03 A3013 RMK AO2 SLP207 T00560028▲ Up
2S3456KPAE▼ Dn


AIRCRAFT HISTORY
FLIGHT DATE FLIGHT NUMBER ORIGIN DESTINATION ROUTE BLOCK TIME FLIGHT TIME FUEL USED (LB) PILOT
2020-07-01SWR39KSFO LSZH KSFO TYDYE TRUKN HYPEE ORRCA FIMUV REO DNJ GTF GGRBI YYN YNE 5690N KELMU FEDDY IKMAN KETLA 6350N 6340N 6230N 6120N BALIX NINEX RUGID NEXUS ROKAN TOPPA LIMGO SUTAL LVM POGOL LASAT MIRGU SHARA TUPOV BLM ZH677 GIPOL LSZH1110.5254826Mark Adeane
2020-06-30SWR38LSZH KSFO LSZH D147A KLO BREGO ZH554 ZH558 VEBIT LASUN LUMEL KUBOM TORPA REKLA RLP ROTSI KOTUN PODUK DIDOR NURMO DIPER VESAN RATUK SOVAT SANDY BIG GOXUL LINDY NORRY CPT KENET UGNUS LANON BADSI ABLIN IRKUM LIPGO SLG PIKIL 5720N 5730N 5640N 5450N NEEKO YRI YUY YXZ HIB FAR DIK DNW BYI LEGGS PYLLE BGGLO LOZIT BDEGA CORKK BRIXX SIDBY RW28L12.111.7283389Mark Adeane
2018-12-30SWR1KPAE LSZH ALPSE IWACK FOLDY YDC YNY 55N14 DUROT 6195N 6380N YFB DUTUM MUSVA CLAVY 6450N 6340N 6130N 5920N AGORI OSBOX MIMKU SOSIM GIGTO MALUD EPOXI AMPIT RISLA KEPAD TELBA VIDOK PEPUL DISIT TUBSU NANUM NEDEX KIDLI LINDY MID BOGNA BENBO HAWKE XAMAB VEULE INPAX RESMI PEKIM PILUL PIMUP PIXIS PIBAT LUSAR SAUNI LIRKO MOLUS SOSAL TELNO KORED KONOL BERSU109.7189650Mats Johansson